Time;durP1;ratioP1;P1;durP2;ratioP2;P2;SDS_P1;SDS_P2;PMS_P1;PMS_P2;Temp;Humidity;BMP_temperature;BMP_pressure;BME280_temperature;BME280_humidity;BME280_pressure;Samples;Min_cycle;Max_cycle;Signal;HPM_P1;HPM_P2
2021/08/18 00:00:51;;;;;;;23.60;12.02;;;;;;;14.41;100.00;101189.16;5009153;28;20373;-66
2021/08/18 00:03:19;;;;;;;22.70;12.25;;;;;;;14.43;100.00;101196.03;5006421;28;20473;-66
2021/08/18 00:05:47;;;;;;;25.98;11.25;;;;;;;14.50;100.00;101181.88;5005928;28;20052;-66
2021/08/18 00:08:15;;;;;;;22.00;12.15;;;;;;;14.41;100.00;101189.16;5008390;28;20081;-66
2021/08/18 00:10:44;;;;;;;22.05;12.40;;;;;;;14.44;100.00;101181.59;5004108;28;20038;-65
2021/08/18 00:13:13;;;;;;;23.42;11.85;;;;;;;14.49;100.00;101182.88;5006425;28;20108;-66
2021/08/18 00:15:41;;;;;;;22.27;12.27;;;;;;;14.43;100.00;101195.19;5003056;28;20116;-66
2021/08/18 00:18:10;;;;;;;21.08;11.23;;;;;;;14.42;100.00;101186.31;5005565;28;20054;-66
2021/08/18 00:20:38;;;;;;;24.33;12.23;;;;;;;14.39;100.00;101183.97;5004211;28;20096;-66
2021/08/18 00:23:06;;;;;;;21.80;10.77;;;;;;;14.38;100.00;101185.00;5007048;28;20038;-65
2021/08/18 00:25:34;;;;;;;22.45;12.30;;;;;;;14.43;100.00;101187.13;5005526;28;20982;-65
2021/08/18 00:28:05;;;;;;;21.48;11.13;;;;;;;14.44;100.00;101186.97;5006122;28;20046;-66
2021/08/18 00:30:33;;;;;;;19.38;10.82;;;;;;;14.44;100.00;101184.28;5008247;28;20046;-66
2021/08/18 00:33:01;;;;;;;21.20;11.20;;;;;;;14.44;100.00;101186.97;5005357;28;20030;-65
2021/08/18 00:35:29;;;;;;;25.75;11.32;;;;;;;14.53;100.00;101184.19;5001959;28;20049;-65
2021/08/18 00:37:57;;;;;;;27.30;11.52;;;;;;;14.44;100.00;101183.44;5007834;28;20100;-65
2021/08/18 00:40:25;;;;;;;19.27;9.57;;;;;;;14.48;100.00;101186.63;5001381;28;20073;-65
2021/08/18 00:42:53;;;;;;;17.75;11.57;;;;;;;14.52;100.00;101182.56;5004448;28;20045;-65
2021/08/18 00:45:23;;;;;;;20.38;10.45;;;;;;;14.50;100.00;101181.88;5003837;28;20076;-65
2021/08/18 00:47:52;;;;;;;22.15;11.70;;;;;;;14.55;100.00;101176.81;5006916;28;20088;-65
2021/08/18 00:50:22;;;;;;;19.48;10.00;;;;;;;14.48;100.00;101176.69;5005113;28;20049;-65
2021/08/18 00:52:50;;;;;;;22.17;11.68;;;;;;;14.43;100.00;101177.25;5004240;28;20378;-65
2021/08/18 00:55:21;;;;;;;20.52;10.57;;;;;;;14.45;100.00;101177.88;5002267;28;20235;-65
2021/08/18 00:57:49;;;;;;;25.38;12.32;;;;;;;14.41;100.00;101176.56;5006562;28;20195;-66
2021/08/18 01:00:18;;;;;;;22.13;11.50;;;;;;;14.44;100.00;101175.38;5006074;28;20042;-66
2021/08/18 01:02:48;;;;;;;23.40;10.80;;;;;;;14.46;100.00;101176.88;5006968;28;20049;-65
2021/08/18 01:05:19;;;;;;;22.60;11.07;;;;;;;14.43;100.00;101171.88;5002789;28;20037;-66
2021/08/18 01:07:48;;;;;;;23.65;12.75;;;;;;;14.41;100.00;101173.88;5006654;28;20092;-66
2021/08/18 01:10:19;;;;;;;23.58;11.57;;;;;;;14.40;100.00;101176.75;5005786;28;20056;-66
2021/08/18 01:12:47;;;;;;;24.75;11.98;;;;;;;14.45;100.00;101171.69;5005074;28;20049;-66
2021/08/18 01:15:18;;;;;;;21.17;11.32;;;;;;;14.50;100.00;101166.63;5004462;28;20084;-65
2021/08/18 01:17:48;;;;;;;21.40;11.50;;;;;;;14.53;100.00;101165.38;5005513;28;20096;-66
2021/08/18 01:20:18;;;;;;;26.60;12.18;;;;;;;14.43;100.00;101176.38;5006631;28;20042;-66
2021/08/18 01:22:46;;;;;;;24.13;11.27;;;;;;;14.44;100.00;101178.91;5005684;28;20077;-66
2021/08/18 01:25:14;;;;;;;23.05;11.63;;;;;;;14.42;100.00;101172.88;5002713;28;20034;-67
2021/08/18 01:27:46;;;;;;;26.02;12.30;;;;;;;14.52;100.00;101179.88;5006328;28;20045;-66
2021/08/18 01:30:16;;;;;;;25.80;12.63;;;;;;;14.45;100.00;101172.50;5005788;28;20046;-66
2021/08/18 01:32:46;;;;;;;22.17;11.52;;;;;;;14.48;100.00;101170.50;5007632;28;20041;-66
2021/08/18 01:35:20;;;;;;;21.48;11.73;;;;;;;14.56;100.00;101175.78;5004696;28;20038;-66
2021/08/18 01:37:48;;;;;;;27.50;11.07;;;;;;;14.52;100.00;101171.81;5004993;28;20042;-66
2021/08/18 01:40:16;;;;;;;23.98;11.70;;;;;;;14.52;100.00;101172.63;5006052;28;20042;-65
2021/08/18 01:42:44;;;;;;;22.02;10.82;;;;;;;14.55;100.00;101171.44;5004263;28;20053;-66
2021/08/18 01:45:16;;;;;;;22.30;11.88;;;;;;;14.51;100.00;101172.81;5008290;28;20437;-66
2021/08/18 01:47:46;;;;;;;19.63;10.75;;;;;;;14.50;100.00;101171.13;5010041;28;20465;-66
2021/08/18 01:50:14;;;;;;;22.00;11.23;;;;;;;14.54;100.00;101167.06;5008655;28;20107;-66
2021/08/18 01:52:41;;;;;;;23.92;11.82;;;;;;;14.57;100.00;101170.25;5009987;28;20050;-66
2021/08/18 01:55:11;;;;;;;22.20;10.80;;;;;;;14.52;100.00;101169.13;5005773;28;20046;-66
2021/08/18 01:57:40;;;;;;;19.38;10.35;;;;;;;14.56;100.00;101173.09;5008675;28;20043;-66
2021/08/18 02:00:10;;;;;;;18.15;10.52;;;;;;;14.61;100.00;101173.38;5011295;28;20046;-66
2021/08/18 02:02:39;;;;;;;22.08;10.93;;;;;;;14.59;100.00;101170.06;5009562;28;20049;-66
2021/08/18 02:05:09;;;;;;;20.98;10.35;;;;;;;14.56;100.00;101175.78;5004933;28;20042;-66
2021/08/18 02:07:38;;;;;;;19.40;10.23;;;;;;;14.63;100.00;101171.41;5008695;28;20056;-66
2021/08/18 02:10:07;;;;;;;23.67;11.70;;;;;;;14.53;100.00;101173.44;5004773;28;20096;-67
2021/08/18 02:12:36;;;;;;;19.90;10.95;;;;;;;14.49;100.00;101174.81;5009168;28;20092;-66
2021/08/18 02:15:05;;;;;;;23.75;11.80;;;;;;;14.49;100.00;101164.94;5008430;28;20061;-66
2021/08/18 02:17:34;;;;;;;27.42;11.95;;;;;;;14.43;100.00;101166.50;5010660;28;20041;-68
2021/08/18 02:20:02;;;;;;;21.75;12.50;;;;;;;14.49;100.00;101169.44;5008765;28;20381;-66
2021/08/18 02:22:31;;;;;;;25.15;13.05;;;;;;;14.42;100.00;101166.66;5009014;28;20045;-66
2021/08/18 02:24:59;;;;;;;26.42;13.00;;;;;;;14.41;100.00;101168.50;5003551;28;20587;-68
2021/08/18 02:27:28;;;;;;;25.88;12.52;;;;;;;14.45;100.00;101167.13;5007687;28;20045;-68
2021/08/18 02:29:56;;;;;;;26.65;13.40;;;;;;;14.46;100.00;101166.13;5008069;28;20038;-66
2021/08/18 02:32:24;;;;;;;27.20;12.95;;;;;;;14.45;100.00;101164.44;5007445;28;20068;-67
2021/08/18 02:34:51;;;;;;;25.05;12.95;;;;;;;14.46;100.00;101165.31;5008470;28;20338;-66
2021/08/18 02:37:19;;;;;;;23.48;12.27;;;;;;;14.46;100.00;101168.81;5003541;28;20104;-68
2021/08/18 02:39:49;;;;;;;23.90;11.90;;;;;;;14.53;100.00;101168.06;5005125;28;20054;-65
2021/08/18 02:42:17;;;;;;;29.17;12.88;;;;;;;14.51;100.00;101167.44;5007753;28;20533;-68
2021/08/18 02:44:46;;;;;;;22.88;11.70;;;;;;;14.55;100.00;101160.69;5005600;28;20038;-68
2021/08/18 02:47:14;;;;;;;25.40;13.80;;;;;;;14.51;100.00;101162.06;5008297;28;20377;-67
2021/08/18 02:49:43;;;;;;;24.92;12.30;;;;;;;14.48;100.00;101165.13;5007191;28;20408;-67
2021/08/18 02:52:11;;;;;;;25.65;12.65;;;;;;;14.44;100.00;101161.94;5008111;28;20046;-68
2021/08/18 02:54:39;;;;;;;28.13;13.63;;;;;;;14.40;100.00;101156.09;5001755;28;20038;-64
2021/08/18 02:57:08;;;;;;;32.00;14.35;;;;;;;14.37;100.00;101167.19;5009704;28;20265;-66
2021/08/18 02:59:36;;;;;;;27.52;12.82;;;;;;;14.46;100.00;101170.66;5009212;28;20045;-65
2021/08/18 03:02:04;;;;;;;26.58;13.02;;;;;;;14.40;100.00;101161.47;5008935;28;20045;-66
2021/08/18 03:04:32;;;;;;;26.42;12.45;;;;;;;14.34;100.00;101158.66;5006439;28;20057;-66
2021/08/18 03:07:00;;;;;;;27.58;12.52;;;;;;;14.39;100.00;101169.72;5006112;28;20496;-66
2021/08/18 03:09:28;;;;;;;32.38;15.57;;;;;;;14.38;100.00;101159.97;5004199;28;20092;-66
2021/08/18 03:11:56;;;;;;;32.90;14.23;;;;;;;14.43;100.00;101154.88;5007184;28;20095;-66
2021/08/18 03:14:26;;;;;;;32.35;13.63;;;;;;;14.39;100.00;101170.53;5004941;28;20034;-66
2021/08/18 03:16:53;;;;;;;28.92;13.48;;;;;;;14.40;100.00;101166.84;5008657;28;20111;-67
2021/08/18 03:19:21;;;;;;;32.03;14.38;;;;;;;14.46;100.00;101160.75;5005592;28;20112;-66
2021/08/18 03:21:49;;;;;;;27.08;13.07;;;;;;;14.50;100.00;101160.38;5006026;28;20088;-66
2021/08/18 03:24:17;;;;;;;25.15;12.68;;;;;;;14.47;100.00;101156.19;5006076;28;20096;-66
2021/08/18 03:26:45;;;;;;;27.00;11.38;;;;;;;14.48;100.00;101162.44;5007595;28;20038;-66
2021/08/18 03:29:13;;;;;;;27.40;12.75;;;;;;;14.44;100.00;101156.56;5008992;28;20049;-66
2021/08/18 03:31:42;;;;;;;28.30;12.98;;;;;;;14.49;100.00;101159.56;5005853;28;20045;-66
2021/08/18 03:34:10;;;;;;;26.63;13.05;;;;;;;14.43;100.00;101157.56;5004972;28;20358;-66
2021/08/18 03:36:38;;;;;;;24.92;12.35;;;;;;;14.51;100.00;101156.69;5008059;28;20038;-66
2021/08/18 03:39:06;;;;;;;26.88;11.80;;;;;;;14.46;100.00;101158.06;5006030;28;20111;-66
2021/08/18 03:41:34;;;;;;;24.15;12.73;;;;;;;14.54;100.00;101164.38;5007469;28;20149;-65
2021/08/18 03:44:02;;;;;;;32.10;12.55;;;;;;;14.52;100.00;101159.19;5004907;28;20042;-66
2021/08/18 03:46:30;;;;;;;27.27;13.52;;;;;;;14.58;100.00;101154.94;5006622;28;20054;-68
2021/08/18 03:49:00;;;;;;;27.17;12.77;;;;;;;14.56;100.00;101154.28;5006838;28;20125;-68
2021/08/18 03:51:28;;;;;;;27.73;12.73;;;;;;;14.63;100.00;101150.72;5007456;28;20074;-68
2021/08/18 03:53:56;;;;;;;25.85;13.27;;;;;;;14.61;100.00;101158.09;5003994;28;20046;-68
2021/08/18 03:56:24;;;;;;;22.50;12.02;;;;;;;14.60;100.00;101151.06;5003938;28;20038;-66
2021/08/18 03:58:51;;;;;;;24.40;12.98;;;;;;;14.60;100.00;101150.22;5005142;28;20050;-66
2021/08/18 04:01:19;;;;;;;25.00;13.05;;;;;;;14.62;100.00;101148.22;5009023;28;20230;-66
2021/08/18 04:03:48;;;;;;;27.67;13.32;;;;;;;14.58;100.00;101157.63;5002876;28;20042;-66
2021/08/18 04:06:17;;;;;;;20.58;11.93;;;;;;;14.54;100.00;101157.16;5005644;28;20041;-66
2021/08/18 04:08:45;;;;;;;27.98;13.32;;;;;;;14.57;100.00;101155.94;5005847;28;20092;-67
2021/08/18 04:11:12;;;;;;;27.88;12.73;;;;;;;14.57;100.00;101161.31;5004187;28;20042;-67
2021/08/18 04:13:41;;;;;;;27.25;13.27;;;;;;;14.55;100.00;101164.19;5003085;28;20385;-66
2021/08/18 04:16:09;;;;;;;21.38;11.45;;;;;;;14.57;100.00;101156.81;5006023;28;20080;-69
2021/08/18 04:18:36;;;;;;;28.20;13.50;;;;;;;14.54;100.00;101154.47;5006221;28;20046;-66
2021/08/18 04:21:04;;;;;;;27.05;13.38;;;;;;;14.59;100.00;101148.56;5004255;28;20367;-66
2021/08/18 04:23:34;;;;;;;29.23;12.90;;;;;;;14.64;100.00;101156.94;5002792;28;20096;-66
2021/08/18 04:26:02;;;;;;;24.52;12.40;;;;;;;14.57;100.00;101159.50;5006951;28;20088;-66
2021/08/18 04:28:30;;;;;;;26.05;11.90;;;;;;;14.48;100.00;101159.75;5005641;28;20401;-67
2021/08/18 04:30:57;;;;;;;35.15;14.55;;;;;;;14.49;100.00;101156.88;5006373;28;20476;-66
2021/08/18 04:33:25;;;;;;;29.88;13.25;;;;;;;14.55;100.00;101156.13;5003310;28;20041;-66
2021/08/18 04:35:53;;;;;;;30.48;13.48;;;;;;;14.52;100.00;101161.06;5006362;28;20088;-67
2021/08/18 04:38:22;;;;;;;30.52;14.57;;;;;;;14.58;100.00;101163.00;5008048;28;20417;-67
2021/08/18 04:40:51;;;;;;;33.25;14.82;;;;;;;14.51;100.00;101159.38;5001924;28;20096;-66
2021/08/18 04:43:19;;;;;;;33.42;14.43;;;;;;;14.57;100.00;101162.19;5002452;28;20085;-66
2021/08/18 04:45:47;;;;;;;30.02;14.77;;;;;;;14.55;100.00;101166.06;5001920;28;20251;-68
2021/08/18 04:48:15;;;;;;;31.23;13.50;;;;;;;14.60;100.00;101163.66;5007903;28;20496;-67
2021/08/18 04:50:43;;;;;;;31.58;13.90;;;;;;;14.58;100.00;101163.00;5006759;28;20531;-66
2021/08/18 04:53:11;;;;;;;26.38;12.88;;;;;;;14.62;100.00;101167.03;5005065;28;20052;-67
2021/08/18 04:55:40;;;;;;;31.25;14.50;;;;;;;14.62;100.00;101164.34;5002752;28;20049;-67
2021/08/18 04:58:10;;;;;;;32.05;14.50;;;;;;;14.58;100.00;101163.00;5005198;28;20073;-66
2021/08/18 05:00:37;;;;;;;29.73;12.98;;;;;;;14.55;100.00;101152.63;5006169;28;20380;-66
2021/08/18 05:03:06;;;;;;;32.03;15.30;;;;;;;14.57;100.00;101167.56;5006357;28;20041;-66
2021/08/18 05:05:34;;;;;;;27.92;13.93;;;;;;;14.58;100.00;101165.69;5002956;28;20073;-66
2021/08/18 05:08:03;;;;;;;30.20;13.50;;;;;;;14.60;100.00;101159.13;5006778;28;20358;-67
2021/08/18 05:10:31;;;;;;;25.52;12.82;;;;;;;14.54;100.00;101156.31;5002799;28;20050;-66
2021/08/18 05:12:59;;;;;;;28.67;13.65;;;;;;;14.55;100.00;101163.38;5003092;28;20103;-66
2021/08/18 05:15:28;;;;;;;27.75;12.90;;;;;;;14.65;100.00;101155.91;5002869;28;20077;-66
2021/08/18 05:17:56;;;;;;;30.45;12.00;;;;;;;14.58;100.00;101157.63;5003299;28;20096;-67
2021/08/18 05:20:24;;;;;;;27.23;12.40;;;;;;;14.58;100.00;101155.78;5008267;28;20042;-66
2021/08/18 05:22:52;;;;;;;28.25;12.40;;;;;;;14.53;100.00;101154.66;5006377;28;20100;-66
2021/08/18 05:25:22;;;;;;;29.85;13.32;;;;;;;14.63;100.00;101157.97;5009298;28;20128;-69
2021/08/18 05:27:51;;;;;;;30.38;12.95;;;;;;;14.63;100.00;101150.72;5006824;28;20050;-67
2021/08/18 05:30:23;;;;;;;28.80;13.27;;;;;;;14.56;100.00;101155.13;5010929;28;20034;-66
2021/08/18 05:32:52;;;;;;;28.20;12.45;;;;;;;14.58;100.00;101152.25;5010062;28;20042;-67
2021/08/18 05:35:21;;;;;;;25.67;12.52;;;;;;;14.61;100.00;101151.88;5003945;28;20053;-67
2021/08/18 05:37:48;;;;;;;30.92;13.20;;;;;;;14.56;100.00;101146.22;5007637;28;20041;-67
2021/08/18 05:40:16;;;;;;;33.75;13.32;;;;;;;14.57;100.00;101151.44;5007122;28;20338;-67
2021/08/18 05:42:44;;;;;;;30.70;13.68;;;;;;;14.72;100.00;101154.16;5008538;28;20038;-67
2021/08/18 05:45:12;;;;;;;30.20;13.85;;;;;;;14.70;100.00;101152.69;5008115;28;20084;-67
2021/08/18 05:47:40;;;;;;;31.20;13.60;;;;;;;14.73;100.00;101161.22;5007368;28;20038;-66
2021/08/18 05:50:11;;;;;;;30.70;12.90;;;;;;;14.76;100.00;101160.03;5010113;28;20054;-67
2021/08/18 05:52:39;;;;;;;31.45;14.63;;;;;;;14.74;100.00;101162.06;5009265;28;20169;-67
2021/08/18 05:55:09;;;;;;;29.85;13.55;;;;;;;14.74;100.00;101156.69;5006202;28;20469;-67
2021/08/18 05:57:37;;;;;;;29.52;13.43;;;;;;;14.80;100.00;101166.72;5010726;28;20046;-67
2021/08/18 06:00:06;;;;;;;33.65;14.00;;;;;;;14.84;100.00;101156.41;5012558;28;20046;-67
2021/08/18 06:02:34;;;;;;;29.20;14.02;;;;;;;14.88;100.00;101157.72;5011484;28;20104;-67
2021/08/18 06:05:02;;;;;;;34.53;14.60;;;;;;;14.82;100.00;101163.84;5006915;28;20450;-67
2021/08/18 06:07:31;;;;;;;31.77;14.95;;;;;;;14.82;100.00;101163.84;5009762;28;20480;-67
2021/08/18 06:09:59;;;;;;;27.38;14.23;;;;;;;14.91;100.00;101154.66;5009522;28;20041;-67
2021/08/18 06:12:27;;;;;;;30.42;15.00;;;;;;;14.95;100.00;101147.91;5010062;28;20046;-67
2021/08/18 06:14:54;;;;;;;30.63;14.57;;;;;;;14.95;100.00;101147.91;5007408;28;20381;-67
2021/08/18 06:17:22;;;;;;;30.48;13.45;;;;;;;14.95;100.00;101143.34;5008291;28;20046;-67
2021/08/18 06:19:50;;;;;;;31.23;14.00;;;;;;;15.07;100.00;101141.06;5009667;28;20042;-67
2021/08/18 06:22:18;;;;;;;28.10;14.55;;;;;;;15.09;100.00;101141.69;5009189;28;20381;-67
2021/08/18 06:24:51;;;;;;;25.48;13.45;;;;;;;15.18;100.00;101150.50;5005823;28;20474;-67
2021/08/18 06:27:20;;;;;;;27.02;13.82;;;;;;;15.12;100.00;101149.38;5010069;28;20050;-67
2021/08/18 06:29:47;;;;;;;28.05;14.52;;;;;;;15.22;100.00;101143.72;5007818;28;20046;-67
2021/08/18 06:32:15;;;;;;;25.70;13.20;;;;;;;15.24;100.00;101140.84;5009203;28;20049;-67
2021/08/18 06:34:43;;;;;;;25.98;13.70;;;;;;;15.30;100.00;101140.13;5005267;28;20050;-67
2021/08/18 06:37:11;;;;;;;30.10;14.95;;;;;;;15.43;100.00;101145.66;5008089;28;20128;-67
2021/08/18 06:39:40;;;;;;;31.95;15.10;;;;;;;15.37;100.00;101141.06;5006523;28;20060;-67
2021/08/18 06:42:09;;;;;;;31.75;15.60;;;;;;;15.60;100.00;101140.91;5005034;28;20277;-67
2021/08/18 06:44:37;;;;;;;25.73;14.25;;;;;;;15.77;100.00;101141.53;5006972;28;20049;-67
2021/08/18 06:47:05;;;;;;;28.77;13.60;;;;;;;15.65;100.00;101126.91;5008192;28;20041;-67
2021/08/18 06:49:34;;;;;;;27.75;14.95;;;;;;;15.63;100.00;101126.25;5009005;28;20112;-67
2021/08/18 06:52:02;;;;;;;28.08;14.00;;;;;;;15.74;100.00;101131.16;5007394;28;20092;-67
2021/08/18 06:54:30;;;;;;;26.63;14.15;;;;;;;15.67;100.00;101125.69;5006566;28;20045;-67
2021/08/18 06:56:57;;;;;;;26.33;13.25;;;;;;;15.80;100.00;101125.03;5008065;28;20095;-67
2021/08/18 06:59:27;;;;;;;25.75;13.30;;;;;;;15.73;100.00;101124.09;5011563;28;20388;-67
2021/08/18 07:01:55;;;;;;;23.23;11.85;;;;;;;15.81;100.00;101125.88;5010038;28;20096;-67
2021/08/18 07:04:23;;;;;;;25.20;13.40;;;;;;;15.93;100.00;101113.56;5006296;28;20342;-66
2021/08/18 07:06:51;;;;;;;21.23;11.00;;;;;;;16.02;100.00;101122.38;5007272;28;20124;-66
2021/08/18 07:09:19;;;;;;;22.65;11.68;;;;;;;15.88;100.00;101120.53;5008670;28;20050;-67
2021/08/18 07:11:46;;;;;;;18.73;9.88;;;;;;;15.79;100.00;101128.75;5003829;28;20092;-66
2021/08/18 07:14:14;;;;;;;22.80;11.32;;;;;;;15.89;100.00;101125.75;5004548;28;20048;-66
2021/08/18 07:16:44;;;;;;;18.15;10.88;;;;;;;15.64;100.00;101131.44;5008970;28;20041;-66
2021/08/18 07:19:12;;;;;;;19.63;11.13;;;;;;;15.86;100.00;101128.00;5008434;28;20041;-66
2021/08/18 07:21:39;;;;;;;19.27;10.43;;;;;;;15.71;100.00;101123.44;5007441;28;20046;-66
2021/08/18 07:24:07;;;;;;;19.88;11.93;;;;;;;15.88;100.00;101132.16;5003122;28;20533;-67
2021/08/18 07:26:37;;;;;;;21.45;10.70;;;;;;;16.09;100.00;101131.34;5007342;28;20046;-66
2021/08/18 07:29:05;;;;;;;17.65;9.98;;;;;;;16.08;100.00;101132.38;5007378;28;20038;-67
2021/08/18 07:31:33;;;;;;;18.02;11.00;;;;;;;16.04;100.00;101131.06;5008562;28;20612;-66
2021/08/18 07:34:02;;;;;;;18.38;10.27;;;;;;;16.03;100.00;101137.47;5003543;28;20133;-67
2021/08/18 07:36:30;;;;;;;20.20;10.05;;;;;;;16.27;100.00;101124.66;5008079;28;20049;-66
2021/08/18 07:38:58;;;;;;;23.08;9.90;;;;;;;16.14;100.00;101120.81;5007125;28;20443;-67
2021/08/18 07:41:27;;;;;;;16.38;10.15;;;;;;;15.83;100.00;101116.59;5008662;28;20219;-66
2021/08/18 07:43:55;;;;;;;18.35;9.95;;;;;;;16.15;100.00;101119.78;5006827;28;20046;-67
2021/08/18 07:46:23;;;;;;;15.52;9.10;;;;;;;16.41;100.00;101122.94;5007547;28;20053;-67
2021/08/18 07:48:51;;;;;;;18.95;10.32;;;;;;;16.43;100.00;101124.41;5008130;28;20132;-67
2021/08/18 07:51:20;;;;;;;16.88;9.40;;;;;;;16.67;100.00;101125.00;5007607;28;20041;-67
2021/08/18 07:53:48;;;;;;;18.95;9.00;;;;;;;16.38;100.00;101126.03;5004340;28;21134;-67
2021/08/18 07:56:16;;;;;;;16.60;9.35;;;;;;;16.47;100.00;101125.69;5006667;28;20046;-67
2021/08/18 07:58:44;;;;;;;16.80;9.20;;;;;;;16.68;100.00;101132.91;5007067;28;20045;-67
2021/08/18 08:01:32;;;;;;;15.45;8.45;;;;;;;16.91;100.00;101120.22;5007715;28;20121;-67
2021/08/18 08:04:00;;;;;;;14.30;8.13;;;;;;;16.83;100.00;101115.78;5004451;28;20042;-67
2021/08/18 08:06:29;;;;;;;14.75;9.77;;;;;;;16.40;100.00;101124.81;5006320;28;20397;-67
2021/08/18 08:08:57;;;;;;;12.10;6.95;;;;;;;16.62;100.00;101130.97;5008580;28;20322;-67
2021/08/18 08:11:25;;;;;;;14.90;7.88;;;;;;;16.86;100.00;101124.31;5008622;28;20042;-66
2021/08/18 08:13:53;;;;;;;14.50;8.00;;;;;;;16.75;100.00;101127.53;5004180;28;20103;-67
2021/08/18 08:16:20;;;;;;;15.15;7.68;;;;;;;16.60;100.00;101126.81;5007168;28;20041;-67
2021/08/18 08:18:48;;;;;;;12.27;6.95;;;;;;;16.78;100.00;101120.94;5006297;28;20049;-67
2021/08/18 08:21:16;;;;;;;15.68;6.25;;;;;;;17.10;100.00;101124.91;5008246;28;20467;-66
2021/08/18 08:23:46;;;;;;;12.40;7.45;;;;;;;17.36;100.00;101117.97;5002557;28;20116;-67
2021/08/18 08:26:14;;;;;;;13.02;7.32;;;;;;;17.09;100.00;101117.84;5008360;28;20058;-67
2021/08/18 08:28:42;;;;;;;12.40;7.18;;;;;;;17.08;100.00;101115.34;5006145;28;20046;-67
2021/08/18 08:31:09;;;;;;;10.73;6.60;;;;;;;17.03;100.00;101118.63;5009686;28;20123;-67
2021/08/18 08:33:37;;;;;;;13.25;6.25;;;;;;;17.10;100.00;101119.50;5006498;28;20073;-67
2021/08/18 08:36:05;;;;;;;12.27;6.13;;;;;;;17.07;100.00;101116.34;5006795;28;20041;-67
2021/08/18 08:38:33;;;;;;;13.82;6.53;;;;;;;17.07;100.00;101122.59;5006750;28;20096;-67
2021/08/18 08:41:04;;;;;;;14.20;7.55;;;;;;;17.10;100.00;101127.59;5004746;28;20050;-67
2021/08/18 08:43:31;;;;;;;11.98;6.72;;;;;;;16.97;100.00;101124.84;5002526;28;20042;-67
2021/08/18 08:46:01;;;;;;;11.43;6.53;;;;;;;17.06;100.00;101134.41;5006536;28;20092;-67
2021/08/18 08:48:29;;;;;;;14.65;6.60;;;;;;;17.14;100.00;101123.47;5009019;28;20038;-66
2021/08/18 08:50:57;;;;;;;12.60;6.15;;;;;;;17.02;100.00;101127.75;5008474;28;20042;-67
2021/08/18 08:53:25;;;;;;;13.20;5.88;;;;;;;17.44;100.00;101127.78;5007713;28;20092;-67
2021/08/18 08:55:54;;;;;;;10.07;6.07;;;;;;;17.00;100.00;101121.75;5008766;28;20064;-67
2021/08/18 08:58:23;;;;;;;10.23;5.47;;;;;;;16.89;100.00;101125.81;5011033;28;20179;-66
2021/08/18 09:00:51;;;;;;;11.60;5.90;;;;;;;17.27;100.00;101117.31;5011590;28;20041;-67
2021/08/18 09:03:23;;;;;;;9.32;5.50;;;;;;;17.61;100.00;101120.16;5011932;28;20129;-67
2021/08/18 09:05:54;;;;;;;8.32;5.28;;;;;;;17.21;100.00;101120.81;5008818;28;20042;-67
2021/08/18 09:08:23;;;;;;;14.93;6.78;;;;;;;17.10;100.00;101132.19;5009235;28;20037;-67
2021/08/18 09:11:09;;;;;;;11.23;6.28;;;;;;;17.34;100.00;101128.97;5009451;28;20042;-66
2021/08/18 09:13:42;;;;;;;10.25;6.90;;;;;;;17.28;100.00;101126.22;5007321;28;20381;-67
2021/08/18 09:16:11;;;;;;;10.00;6.32;;;;;;;17.46;100.00;101129.22;5011608;28;20045;-66
2021/08/18 09:18:42;;;;;;;12.52;7.18;;;;;;;17.50;100.00;101132.38;5009361;28;20037;-67
2021/08/18 09:21:30;;;;;;;13.85;8.65;;;;;;;16.83;100.00;101119.31;5010519;28;20056;-67
2021/08/18 09:24:33;;;;;;;14.68;7.80;;;;;;;17.20;100.00;101119.97;5007205;28;20042;-67
2021/08/18 09:27:08;;;;;;;14.55;8.05;;;;;;;17.39;100.00;101128.34;5009587;28;20045;-67
2021/08/18 09:29:42;;;;;;;12.67;8.57;;;;;;;17.64;100.00;101115.16;5011468;28;20043;-67
2021/08/18 09:32:23;;;;;;;14.57;8.68;;;;;;;17.85;100.00;101122.31;5011849;28;20379;-68
2021/08/18 09:35:08;;;;;;;13.85;7.93;;;;;;;18.23;100.00;101107.44;5006888;28;20077;-67
2021/08/18 09:37:39;;;;;;;12.98;8.18;;;;;;;18.55;100.00;101104.94;5009540;28;20069;-67
2021/08/18 09:40:18;;;;;;;15.63;8.90;;;;;;;18.30;100.00;101100.16;5008983;28;20050;-67
2021/08/18 09:42:47;;;;;;;13.73;8.10;;;;;;;17.64;100.00;101108.94;5008104;28;20108;-67
2021/08/18 09:45:19;;;;;;;13.48;7.90;;;;;;;18.34;100.00;101109.53;5007172;28;20099;-66
2021/08/18 09:47:57;;;;;;;12.52;8.07;;;;;;;18.44;100.00;101109.09;5008697;28;20049;-67
2021/08/18 09:50:27;;;;;;;12.93;9.18;;;;;;;17.43;100.00;101112.59;5004959;28;20429;-67
2021/08/18 09:53:05;;;;;;;13.45;8.43;;;;;;;18.10;100.00;101119.03;5007957;28;20046;-67
2021/08/18 09:55:33;;;;;;;13.18;8.32;;;;;;;18.92;100.00;101110.72;5004684;28;20041;-67
2021/08/18 09:58:01;;;;;;;13.73;7.60;;;;;;;18.95;100.00;101094.06;5008528;28;20048;-67
2021/08/18 10:00:31;;;;;;;16.50;8.55;;;;;;;17.70;100.00;101108.13;5008147;28;20030;-67
2021/08/18 10:02:59;;;;;;;11.95;7.38;;;;;;;17.91;100.00;101109.06;5008419;28;20057;-66
2021/08/18 10:05:30;;;;;;;13.13;7.32;;;;;;;18.67;100.00;101099.72;5006081;28;20076;-67
2021/08/18 10:07:58;;;;;;;14.38;7.90;;;;;;;18.95;100.00;101101.38;5006104;28;20058;-67
2021/08/18 10:10:26;;;;;;;11.30;7.28;;;;;;;19.24;100.00;101100.84;5008457;28;20449;-68
2021/08/18 10:12:59;;;;;;;8.82;6.50;;;;;;;18.61;100.00;101101.38;5008072;28;20429;-67
2021/08/18 10:15:27;;;;;;;11.20;7.07;;;;;;;18.76;100.00;101104.69;5007959;28;20100;-67
2021/08/18 10:17:56;;;;;;;12.43;6.60;;;;;;;19.40;100.00;101094.13;5008480;28;20116;-67
2021/08/18 10:20:24;;;;;;;11.52;6.35;;;;;;;19.24;100.00;101098.16;5008304;28;20100;-67
2021/08/18 10:23:02;;;;;;;10.73;6.32;;;;;;;18.50;100.00;101091.19;5009387;28;20322;-67
2021/08/18 10:25:38;;;;;;;9.55;6.35;;;;;;;18.31;100.00;101093.69;5003173;28;20107;-67
2021/08/18 10:28:10;;;;;;;9.70;6.55;;;;;;;19.15;100.00;101093.19;5007016;28;20425;-67
2021/08/18 10:30:50;;;;;;;12.23;7.18;;;;;;;18.37;100.00;101092.03;5008643;28;20234;-67
2021/08/18 10:33:55;;;;;;;10.73;6.88;;;;;;;18.60;100.00;101099.75;5004812;28;20068;-67
2021/08/18 10:37:02;;;;;;;9.68;7.15;;;;;;;18.32;100.00;101091.84;5007402;28;20041;-67
2021/08/18 10:39:37;;;;;;;9.25;6.80;;;;;;;17.53;100.00;101092.28;5007637;28;20069;-67
2021/08/18 10:42:07;;;;;;;13.55;7.90;;;;;;;17.86;100.00;101105.06;5007789;28;20461;-66
2021/08/18 10:44:38;;;;;;;13.85;7.55;;;;;;;17.64;100.00;101090.88;5005263;28;20041;-68
2021/08/18 10:47:22;;;;;;;11.90;7.60;;;;;;;17.49;100.00;101103.69;5009262;28;20050;-68
2021/08/18 10:49:52;;;;;;;12.75;8.38;;;;;;;17.95;100.00;101094.09;5004980;28;20038;-67
2021/08/18 10:52:54;;;;;;;11.27;7.53;;;;;;;18.43;100.00;101091.22;5008824;28;20042;-68
2021/08/18 10:55:31;;;;;;;11.10;6.93;;;;;;;18.32;100.00;101092.66;5002552;28;20042;-67
2021/08/18 10:58:01;;;;;;;11.43;6.93;;;;;;;17.98;100.00;101085.59;5005900;28;20049;-66
2021/08/18 11:00:37;;;;;;;11.70;6.88;;;;;;;17.74;100.00;101095.88;5009749;28;20038;-67
2021/08/18 11:03:07;;;;;;;13.20;7.65;;;;;;;17.38;100.00;101102.41;5010580;28;20038;-67
2021/08/18 11:05:48;;;;;;;10.77;6.40;;;;;;;17.34;100.00;101095.75;5007013;28;20100;-67
2021/08/18 11:08:22;;;;;;;11.30;7.20;;;;;;;17.08;100.00;101093.75;5009288;28;20377;-67
2021/08/18 11:11:18;;;;;;;12.52;6.20;;;;;;;17.31;100.00;101097.00;5006431;28;20042;-67
2021/08/18 11:13:48;;;;;;;12.60;7.18;;;;;;;17.09;100.00;101100.81;5004743;28;20049;-67
2021/08/18 11:16:18;;;;;;;10.98;6.72;;;;;;;17.41;100.00;101099.31;5008248;28;20060;-67